Terminal Aerodrome Forecast
Issued by NWS

Home | Current Version | Previous Version | Text Only | Print | Product List | Glossary On
Versions: 1 2 3 4 5 6 7 8 9 10 11 12 13 14 15 16 17
908
FTUS46 KPDT 051137
TAFALW
TAF
KALW 051137Z 0512/0612 12006KT P6SM VCSH SCT050 BKN120
     FM051500 20006KT P6SM SCT050 BKN150
     FM052100 33008KT P6SM -SHRA SCT050 BKN090
      TEMPO 0523/0602 -TSRA BKN050CB OVC090
     FM060400 14007KT P6SM VCSH SCT050 OVC090=

USA.gov is the U.S. government's official web portal to all federal, state and local government web resources and services.